Time;durP1;ratioP1;P1;durP2;ratioP2;P2;SDS_P1;SDS_P2;PMS_P1;PMS_P2;Temp;Humidity;BMP_temperature;BMP_pressure;BME280_temperature;BME280_humidity;BME280_pressure;Samples;Min_cycle;Max_cycle;Signal;HPM_P1;HPM_P2
2023/01/04 13:49:50;;;;;;;0.80;0.80;;;;;;;9.38;100.00;101284.81;5067355;28;20537;-74
2023/01/04 13:52:23;;;;;;;1.70;1.60;;;;;;;9.50;100.00;101310.25;5031963;28;20199;-74
2023/01/04 13:54:50;;;;;;;5.35;4.20;;;;;;;9.20;100.00;101320.31;5067136;28;20206;-75
2023/01/04 13:57:19;;;;;;;0.70;0.70;;;;;;;9.10;100.00;101325.91;5066733;28;20268;-74
2023/01/04 13:59:47;;;;;;;0.70;0.70;;;;;;;8.82;100.00;101303.22;5048619;28;20202;-75
2023/01/04 14:02:17;;;;;;;1.15;1.15;;;;;;;8.84;100.00;101323.16;5067260;28;20223;-75
2023/01/04 14:04:45;;;;;;;0.70;0.70;;;;;;;8.82;100.00;101329.06;5067066;28;20226;-74
2023/01/04 14:07:21;;;;;;;4.20;3.90;;;;;;;8.51;100.00;101290.72;5066682;28;20191;-74
2023/01/04 15:06:47;;;;;;;0.98;0.98;;;;;;;9.48;100.00;101299.88;5106670;27;20947;-72
2023/01/04 15:09:14;;;;;;;0.80;0.80;;;;;;;9.34;100.00;101306.22;5091268;28;20214;-73
2023/01/04 15:11:40;;;;;;;0.68;0.68;;;;;;;9.37;100.00;101319.28;5077275;28;20215;-73
2023/01/04 15:14:07;;;;;;;0.70;0.70;;;;;;;9.36;100.00;101315.78;5085201;28;20244;-74
2023/01/04 15:16:34;;;;;;;0.90;0.90;;;;;;;9.33;100.00;101326.03;5090407;28;20195;-75
2023/01/04 15:19:01;;;;;;;0.82;0.82;;;;;;;9.32;100.00;101333.72;5076934;28;20266;-74
2023/01/04 15:21:27;;;;;;;1.45;1.45;;;;;;;9.30;100.00;101333.69;5092436;28;20202;-74
2023/01/04 15:23:56;;;;;;;3.72;1.95;;;;;;;9.23;100.00;101323.00;5089617;28;20305;-75
2023/01/04 15:26:22;;;;;;;1.48;1.48;;;;;;;9.22;100.00;101337.66;5098345;28;20210;-75
2023/01/04 15:28:49;;;;;;;5.38;2.45;;;;;;;9.19;100.00;101341.81;5086375;28;20213;-73
2023/01/04 15:31:16;;;;;;;2.13;2.03;;;;;;;9.17;100.00;101339.16;5082831;28;20198;-74
2023/01/04 15:33:43;;;;;;;2.45;1.67;;;;;;;9.08;100.00;101336.22;5065297;28;20587;-74
2023/01/04 15:36:12;;;;;;;1.88;1.88;;;;;;;8.87;100.00;101281.00;5086769;28;20296;-76
2023/01/04 15:38:39;;;;;;;0.80;0.80;;;;;;;8.67;100.00;101259.50;5076946;28;20191;-74
2023/01/04 15:42:57;;;;;;;0.80;0.80;;;;;;;9.06;100.00;101324.91;5086221;28;20226;-74
2023/01/04 15:43:57;;;;;;;1.90;1.80;;;;;;;8.89;100.00;101313.88;5085912;28;20263;-75
2023/01/04 15:46:24;;;;;;;0.75;0.75;;;;;;;8.97;100.00;101314.19;5079729;28;20209;-75
2023/01/04 15:48:50;;;;;;;1.33;1.33;;;;;;;8.95;100.00;101311.53;5085253;28;20199;-75
2023/01/04 15:51:17;;;;;;;0.70;0.70;;;;;;;8.32;100.00;101215.78;5080799;28;20198;-74
2023/01/04 15:53:44;;;;;;;0.70;0.70;;;;;;;8.79;100.00;101318.59;5075614;28;20237;-75
2023/01/04 15:56:13;;;;;;;0.80;0.80;;;;;;;8.96;100.00;101320.16;5082712;28;20234;-75
2023/01/04 15:58:40;;;;;;;0.70;0.70;;;;;;;8.83;100.00;101289.47;5078540;28;20627;-74
2023/01/04 16:01:09;;;;;;;1.05;1.05;;;;;;;8.97;100.00;101303.84;5086407;28;20210;-74
2023/01/04 16:03:35;;;;;;;0.80;0.80;;;;;;;9.22;100.00;101327.31;5080206;28;20209;-74
2023/01/04 16:06:05;;;;;;;1.48;1.48;;;;;;;9.33;100.00;101333.78;5102766;28;20278;-74
2023/01/04 16:08:32;;;;;;;0.70;0.70;;;;;;;9.37;100.00;101338.28;5091508;28;20210;-74
2023/01/04 16:10:58;;;;;;;0.80;0.80;;;;;;;9.45;100.00;101343.75;5065108;28;20573;-74
2023/01/04 16:13:27;;;;;;;1.30;1.30;;;;;;;9.49;100.00;101331.81;5108403;28;20225;-74
2023/01/04 16:15:53;;;;;;;0.90;0.90;;;;;;;9.07;100.00;101261.09;5097059;28;20218;-73
2023/01/04 16:18:20;;;;;;;0.90;0.90;;;;;;;9.57;100.00;101345.94;5109457;28;20208;-73
2023/01/04 16:20:47;;;;;;;1.00;1.00;;;;;;;9.51;100.00;101343.09;5083953;28;20194;-72
2023/01/04 16:23:14;;;;;;;1.20;1.20;;;;;;;9.49;100.00;101347.34;5103754;28;20266;-73
2023/01/04 16:25:40;;;;;;;1.35;1.35;;;;;;;9.56;100.00;101341.59;5074422;28;20206;-72
2023/01/04 16:28:07;;;;;;;0.98;0.98;;;;;;;9.60;100.00;101346.94;5094502;28;20214;-72
2023/01/04 16:30:35;;;;;;;1.83;1.67;;;;;;;9.60;100.00;101351.22;5102152;28;20240;-72
2023/01/04 16:33:02;;;;;;;1.83;1.83;;;;;;;9.36;100.00;101336.50;5113024;28;20209;-72
2023/01/04 16:35:29;;;;;;;0.90;0.90;;;;;;;9.43;100.00;101356.63;5106924;28;20236;-72
2023/01/04 16:37:56;;;;;;;0.90;0.90;;;;;;;9.46;100.00;101356.75;5096977;28;20201;-72
2023/01/04 16:40:24;;;;;;;1.55;1.55;;;;;;;9.45;100.00;101354.13;5107337;28;20216;-72
2023/01/04 16:42:50;;;;;;;2.92;2.35;;;;;;;9.63;100.00;101347.03;5061622;28;20202;-75
2023/01/04 16:45:19;;;;;;;3.25;3.00;;;;;;;9.64;100.00;101353.09;5089342;28;20214;-74
2023/01/04 16:47:49;;;;;;;1.67;1.67;;;;;;;9.44;100.00;101355.81;5091396;28;20210;-73
2023/01/04 16:50:16;;;;;;;0.85;0.85;;;;;;;9.52;100.00;101331.94;5088824;28;20519;-73
2023/01/04 16:52:42;;;;;;;1.00;1.00;;;;;;;9.87;100.00;101323.81;5075514;28;20448;-73
2023/01/04 16:55:10;;;;;;;1.10;1.10;;;;;;;9.39;100.00;101258.97;5078745;28;20233;-73
2023/01/04 16:57:37;;;;;;;1.15;1.15;;;;;;;9.73;100.00;101331.06;5085257;28;20252;-73
2023/01/04 17:00:05;;;;;;;1.20;1.20;;;;;;;9.64;100.00;101319.44;5073401;28;20210;-75
2023/01/04 17:02:31;;;;;;;1.98;1.88;;;;;;;9.64;100.00;101337.56;5077425;28;20259;-75
2023/01/04 17:04:59;;;;;;;1.30;1.30;;;;;;;9.56;100.00;101339.00;5075131;28;20244;-75
2023/01/04 17:07:31;;;;;;;1.73;1.73;;;;;;;9.46;100.00;101342.91;5078249;28;20557;-72
2023/01/04 17:09:59;;;;;;;0.77;0.77;;;;;;;9.53;100.00;101349.22;5081236;28;20201;-74
2023/01/04 17:12:26;;;;;;;9.00;5.95;;;;;;;9.58;100.00;101347.69;5073485;28;20303;-72
2023/01/04 17:14:55;;;;;;;0.80;0.80;;;;;;;9.48;100.00;101355.94;5091316;28;20696;-72
2023/01/04 17:17:22;;;;;;;0.90;0.90;;;;;;;9.45;100.00;101351.53;5088028;28;20202;-73
2023/01/04 17:19:49;;;;;;;1.58;1.25;;;;;;;9.32;100.00;101344.97;5070223;28;20209;-73
2023/01/04 17:22:17;;;;;;;3.35;3.15;;;;;;;9.33;100.00;101351.03;5091651;28;20202;-73
2023/01/04 17:24:43;;;;;;;1.13;1.13;;;;;;;9.33;100.00;101356.19;5084628;28;20210;-73
2023/01/04 17:27:10;;;;;;;0.70;0.70;;;;;;;9.34;100.00;101348.50;5079024;28;20201;-73
2023/01/04 17:29:37;;;;;;;2.55;2.45;;;;;;;9.30;100.00;101340.56;5088412;28;20263;-74
2023/01/04 17:32:04;;;;;;;0.70;0.70;;;;;;;9.31;100.00;101350.94;5087752;28;20206;-72
2023/01/04 17:34:31;;;;;;;1.55;1.55;;;;;;;9.28;100.00;101353.41;5090727;28;20206;-74
2023/01/04 17:36:58;;;;;;;2.05;2.05;;;;;;;9.16;100.00;101334.84;5091077;28;20205;-72
2023/01/04 17:39:29;;;;;;;1.10;1.10;;;;;;;9.28;100.00;101349.94;5087879;28;20214;-72
2023/01/04 17:41:56;;;;;;;0.90;0.90;;;;;;;9.26;100.00;101352.50;5087545;28;20795;-73
2023/01/04 17:44:23;;;;;;;3.35;2.33;;;;;;;9.28;100.00;101347.34;5089407;28;20226;-72
2023/01/04 17:46:50;;;;;;;1.27;1.27;;;;;;;9.25;100.00;101339.47;5099884;28;20213;-72
2023/01/04 17:49:16;;;;;;;0.73;0.73;;;;;;;9.28;100.00;101348.25;5090839;28;20212;-72
2023/01/04 17:51:44;;;;;;;1.67;1.67;;;;;;;9.25;100.00;101342.94;5111803;28;20198;-73
2023/01/04 17:54:14;;;;;;;1.00;1.00;;;;;;;9.29;100.00;101339.66;5109332;28;20212;-74
2023/01/04 17:56:42;;;;;;;5.18;4.65;;;;;;;9.32;100.00;101336.31;5089956;28;20791;-73
2023/01/04 17:59:11;;;;;;;2.17;2.13;;;;;;;9.32;100.00;101328.53;5092349;28;20661;-73
2023/01/04 18:01:38;;;;;;;1.10;1.10;;;;;;;9.26;100.00;101321.44;5077003;28;20598;-72
2023/01/04 18:04:05;;;;;;;2.45;2.35;;;;;;;9.24;100.00;101327.38;5095608;28;20225;-73
2023/01/04 18:06:34;;;;;;;0.90;0.90;;;;;;;9.27;100.00;101330.97;5086106;28;20282;-73
2023/01/04 18:09:02;;;;;;;3.35;3.15;;;;;;;9.19;100.00;101331.47;5111123;28;20205;-73
2023/01/04 18:11:30;;;;;;;0.90;0.90;;;;;;;9.10;100.00;101311.28;5098652;28;20217;-74
2023/01/04 18:13:58;;;;;;;0.90;0.90;;;;;;;9.19;100.00;101326.28;5092888;28;20202;-73
2023/01/04 18:16:27;;;;;;;3.22;2.10;;;;;;;9.08;100.00;101328.44;5094563;28;20226;-77
2023/01/04 18:18:54;;;;;;;0.70;0.70;;;;;;;9.01;100.00;101325.53;5084812;28;20239;-74
2023/01/04 18:21:25;;;;;;;2.03;1.92;;;;;;;8.84;100.00;101322.28;5089492;28;20659;-73
2023/01/04 18:23:54;;;;;;;3.28;3.15;;;;;;;8.65;100.00;101304.22;5085587;28;20754;-74
2023/01/04 18:26:21;;;;;;;2.75;2.55;;;;;;;8.19;100.00;101235.03;5086284;28;20209;-73
2023/01/04 18:28:48;;;;;;;1.00;1.00;;;;;;;8.53;100.00;101295.94;5090137;28;20198;-72
2023/01/04 18:31:18;;;;;;;0.90;0.90;;;;;;;8.67;100.00;101318.09;5090348;28;20222;-73
2023/01/04 18:33:52;;;;;;;0.90;0.90;;;;;;;8.52;100.00;101310.56;5089033;28;20664;-73
2023/01/04 18:36:19;;;;;;;0.85;0.85;;;;;;;8.51;100.00;101318.25;5085281;28;20324;-73
2023/01/04 18:38:49;;;;;;;0.95;0.95;;;;;;;8.52;100.00;101313.16;5090452;28;20237;-73
2023/01/04 18:41:15;;;;;;;2.33;2.22;;;;;;;8.49;100.00;101314.72;5085478;28;20251;-73
2023/01/04 18:43:42;;;;;;;0.77;0.77;;;;;;;8.32;100.00;101276.09;5087934;28;20563;-73
2023/01/04 18:46:10;;;;;;;1.00;1.00;;;;;;;8.45;100.00;101306.81;5084166;28;20807;-74
2023/01/04 18:48:38;;;;;;;0.70;0.70;;;;;;;8.26;100.00;101278.41;5088007;28;20265;-73
2023/01/04 18:51:08;;;;;;;1.10;1.10;;;;;;;8.31;100.00;101302.75;5084319;28;20202;-74
2023/01/04 18:53:34;;;;;;;0.70;0.70;;;;;;;8.27;100.00;101284.47;5089087;28;20265;-73
2023/01/04 18:56:03;;;;;;;0.70;0.70;;;;;;;8.33;100.00;101301.13;5089232;28;20225;-73
2023/01/04 18:58:30;;;;;;;1.00;1.00;;;;;;;8.36;100.00;101290.94;5089335;28;20209;-73
2023/01/04 19:01:01;;;;;;;0.90;0.90;;;;;;;8.25;100.00;101276.63;5047342;28;20198;-73
2023/01/04 19:03:28;;;;;;;0.80;0.80;;;;;;;7.94;100.00;101268.38;5085756;28;20218;-72
2023/01/04 19:05:57;;;;;;;1.02;1.02;;;;;;;8.00;100.00;101278.94;5081792;28;20233;-72
2023/01/04 19:08:25;;;;;;;0.70;0.70;;;;;;;8.09;100.00;101275.91;5089801;28;20262;-73
2023/01/04 19:10:53;;;;;;;0.70;0.70;;;;;;;8.13;100.00;101276.13;5095181;28;20423;-73
2023/01/04 19:13:20;;;;;;;0.95;0.95;;;;;;;8.17;100.00;101271.97;5109744;28;20205;-73
2023/01/04 19:15:47;;;;;;;0.93;0.93;;;;;;;8.22;100.00;101273.91;5064336;28;20699;-74
2023/01/04 19:18:14;;;;;;;1.40;1.40;;;;;;;8.09;100.00;101268.16;5061848;28;20209;-74
2023/01/04 19:20:40;;;;;;;0.73;0.73;;;;;;;8.18;100.00;101269.44;5095506;28;20198;-75
2023/01/04 19:23:09;;;;;;;4.38;2.72;;;;;;;8.30;100.00;101276.88;5101351;28;20202;-74
2023/01/04 19:25:38;;;;;;;0.80;0.80;;;;;;;8.30;100.00;101274.28;5100056;28;20576;-75
2023/01/04 19:28:05;;;;;;;0.70;0.70;;;;;;;8.34;100.00;101277.06;5100591;28;20327;-73
2023/01/04 19:30:32;;;;;;;1.85;1.75;;;;;;;8.31;100.00;101279.50;5095700;28;20199;-74
2023/01/04 19:32:59;;;;;;;0.70;0.70;;;;;;;8.30;100.00;101276.88;5106003;28;20695;-74
2023/01/04 19:35:26;;;;;;;0.90;0.90;;;;;;;8.33;100.00;101272.72;5089134;28;20198;-74
2023/01/04 19:37:53;;;;;;;1.00;1.00;;;;;;;8.27;100.00;101279.28;5060252;28;20200;-76
2023/01/04 19:40:21;;;;;;;0.80;0.80;;;;;;;8.18;100.00;101279.75;5077689;28;20199;-73
2023/01/04 19:42:47;;;;;;;3.83;1.90;;;;;;;8.23;100.00;101274.81;5111807;28;20193;-73
2023/01/04 19:45:15;;;;;;;0.80;0.80;;;;;;;8.27;100.00;101275.00;5101283;28;20202;-72
2023/01/04 19:47:41;;;;;;;0.80;0.80;;;;;;;8.17;100.00;101271.97;5080523;28;20208;-74
2023/01/04 19:50:08;;;;;;;0.73;0.73;;;;;;;7.98;100.00;101265.09;5100153;28;20213;-74
2023/01/04 19:52:36;;;;;;;0.70;0.70;;;;;;;7.88;100.00;101248.28;5089788;28;20543;-75
2023/01/04 19:55:03;;;;;;;1.00;1.00;;;;;;;8.06;100.00;101268.91;5113677;28;20213;-74
2023/01/04 19:57:32;;;;;;;0.68;0.68;;;;;;;8.11;100.00;101261.34;5100786;28;20295;-73
2023/01/04 19:59:58;;;;;;;0.60;0.60;;;;;;;8.02;100.00;101256.69;5092630;28;20198;-73
2023/01/04 20:02:25;;;;;;;0.70;0.70;;;;;;;8.06;100.00;101257.69;5085523;28;20592;-75
2023/01/04 20:04:52;;;;;;;0.80;0.80;;;;;;;8.16;100.00;101260.75;5092291;28;20603;-74
2023/01/04 20:07:19;;;;;;;0.70;0.70;;;;;;;8.22;100.00;101255.84;5083950;28;20210;-74
2023/01/04 20:09:47;;;;;;;0.77;0.77;;;;;;;8.24;100.00;101256.75;5091113;28;20313;-74
2023/01/04 20:12:14;;;;;;;0.70;0.70;;;;;;;7.93;100.00;101199.44;5084699;28;20216;-74
2023/01/04 20:14:42;;;;;;;3.85;1.98;;;;;;;8.27;100.00;101259.50;5104380;28;20209;-74
2023/01/04 20:17:09;;;;;;;0.68;0.68;;;;;;;8.03;100.00;101231.72;5096302;28;20233;-74
2023/01/04 20:19:36;;;;;;;1.98;1.88;;;;;;;8.13;100.00;101245.13;5103296;28;20260;-74
2023/01/04 20:22:03;;;;;;;1.27;1.27;;;;;;;8.01;100.00;101246.25;5066296;28;20206;-73
2023/01/04 20:24:29;;;;;;;2.65;2.55;;;;;;;7.87;100.00;101256.00;5084813;28;20202;-74
2023/01/04 20:26:56;;;;;;;0.70;0.70;;;;;;;7.92;100.00;101244.16;5102743;28;20688;-73
2023/01/04 20:29:23;;;;;;;1.52;1.52;;;;;;;7.73;100.00;101205.44;5113057;28;20591;-74
2023/01/04 20:31:51;;;;;;;1.83;1.83;;;;;;;7.97;100.00;101229.75;5085337;28;20206;-74
2023/01/04 20:34:18;;;;;;;0.80;0.80;;;;;;;7.81;100.00;101194.63;5102442;28;20237;-74
2023/01/04 20:36:45;;;;;;;0.70;0.70;;;;;;;7.94;100.00;101224.47;5107630;28;20228;-74
2023/01/04 20:39:11;;;;;;;1.00;1.00;;;;;;;7.92;100.00;101229.53;5109514;28;20204;-73
2023/01/04 20:43:31;;;;;;;2.10;2.00;;;;;;;7.86;100.00;101213.78;5107207;28;20205;-74
2023/01/04 20:44:24;;;;;;;0.60;0.60;;;;;;;7.86;100.00;101202.56;5097350;28;20616;-73
2023/01/04 20:46:53;;;;;;;0.70;0.70;;;;;;;8.05;100.00;101217.19;5105975;28;20206;-73
2023/01/04 20:49:20;;;;;;;0.93;0.93;;;;;;;7.90;100.00;101191.56;5090874;28;20190;-73
2023/01/04 20:51:47;;;;;;;0.90;0.90;;;;;;;8.13;100.00;101214.13;5090843;28;20202;-73
2023/01/04 20:54:14;;;;;;;0.80;0.80;;;;;;;8.20;100.00;101215.25;5091479;28;20210;-73
2023/01/04 20:56:41;;;;;;;0.70;0.70;;;;;;;8.16;100.00;101193.56;5091055;28;20279;-72
2023/01/04 20:59:08;;;;;;;1.00;1.00;;;;;;;8.32;100.00;101211.50;5105921;28;20214;-73
2023/01/04 21:01:35;;;;;;;0.80;0.80;;;;;;;8.36;100.00;101213.41;5101957;28;20209;-74
2023/01/04 21:04:03;;;;;;;0.80;0.80;;;;;;;8.40;100.00;101215.31;5102377;28;20209;-73
2023/01/04 21:06:32;;;;;;;1.15;1.15;;;;;;;8.19;100.00;101193.69;5096397;28;20252;-74
2023/01/04 21:08:59;;;;;;;0.80;0.80;;;;;;;8.02;100.00;101171.44;5103044;28;20212;-76
2023/01/04 21:11:26;;;;;;;0.90;0.90;;;;;;;8.14;100.00;101205.53;5091081;28;20211;-74
2023/01/04 21:13:53;;;;;;;0.98;0.98;;;;;;;8.22;100.00;101199.00;5092733;28;20296;-75
2023/01/04 21:16:19;;;;;;;0.70;0.70;;;;;;;7.98;100.00;101177.31;5091869;28;20234;-74
2023/01/04 21:18:46;;;;;;;0.70;0.70;;;;;;;7.88;100.00;101151.91;5095366;28;20277;-74
2023/01/04 21:21:16;;;;;;;0.70;0.70;;;;;;;8.33;100.00;101199.47;5112380;28;20208;-74
2023/01/04 21:23:44;;;;;;;1.10;1.10;;;;;;;8.39;100.00;101202.31;5097028;28;20602;-73
2023/01/04 21:26:14;;;;;;;0.93;0.93;;;;;;;8.45;100.00;101205.16;5065457;28;20198;-74
2023/01/04 21:28:40;;;;;;;0.80;0.80;;;;;;;8.31;100.00;101170.13;5089028;28;20574;-74
2023/01/04 21:31:10;;;;;;;0.95;0.95;;;;;;;8.57;100.00;101189.25;5101945;28;20206;-74
2023/01/04 21:33:37;;;;;;;1.00;1.00;;;;;;;8.58;100.00;101188.44;5098500;28;20233;-74
2023/01/04 21:36:10;;;;;;;1.70;1.70;;;;;;;8.53;100.00;101192.53;5097778;28;20202;-75
2023/01/04 21:38:38;;;;;;;0.88;0.88;;;;;;;8.38;100.00;101173.00;5097150;28;20201;-75
2023/01/04 21:41:07;;;;;;;0.68;0.68;;;;;;;8.18;100.00;101150.59;5078711;28;20211;-76
2023/01/04 21:43:34;;;;;;;0.90;0.90;;;;;;;8.49;100.00;101182.91;5081863;28;20201;-75
2023/01/04 21:46:04;;;;;;;0.82;0.82;;;;;;;8.54;100.00;101168.47;5091522;28;20202;-75
2023/01/04 21:48:31;;;;;;;2.08;1.98;;;;;;;8.52;100.00;101178.75;5091821;28;20202;-74
2023/01/04 21:50:59;;;;;;;16.08;4.55;;;;;;;8.45;100.00;101163.81;5054483;28;20209;-73
2023/01/04 21:53:28;;;;;;;0.70;0.70;;;;;;;8.35;100.00;101154.78;5048380;28;20202;-74
2023/01/04 21:56:00;;;;;;;0.70;0.70;;;;;;;8.38;100.00;101159.22;5071851;28;20225;-74
2023/01/04 21:58:27;;;;;;;0.90;0.90;;;;;;;8.32;100.00;101158.94;5085260;28;20221;-73
2023/01/04 22:00:53;;;;;;;2.95;2.75;;;;;;;8.25;100.00;101134.53;5084999;28;20202;-74
2023/01/04 22:03:20;;;;;;;3.67;2.90;;;;;;;8.31;100.00;101147.72;5090439;28;20579;-74
2023/01/04 22:05:47;;;;;;;2.90;2.67;;;;;;;8.23;100.00;101151.69;5090321;28;20267;-74
2023/01/04 22:08:14;;;;;;;0.70;0.70;;;;;;;8.33;100.00;101147.78;5089976;28;20206;-74
2023/01/04 22:10:41;;;;;;;0.70;0.70;;;;;;;8.14;100.00;101151.28;5055348;28;20209;-74
2023/01/04 22:13:09;;;;;;;0.70;0.70;;;;;;;8.17;100.00;101153.13;5091790;28;20198;-74
2023/01/04 22:15:38;;;;;;;0.90;0.90;;;;;;;7.81;100.00;101106.84;5109128;28;20206;-73
2023/01/04 22:18:05;;;;;;;0.95;0.95;;;;;;;8.05;100.00;101144.88;5088250;28;20234;-74
2023/01/04 22:20:32;;;;;;;0.70;0.70;;;;;;;7.93;100.00;101111.66;5108944;28;20570;-74
2023/01/04 22:22:59;;;;;;;1.00;1.00;;;;;;;7.96;100.00;101133.31;5089879;28;20197;-73
2023/01/04 22:25:26;;;;;;;1.25;1.25;;;;;;;8.09;100.00;101129.56;5103870;28;20205;-73
2023/01/04 22:27:52;;;;;;;0.70;0.70;;;;;;;8.13;100.00;101118.53;5104312;28;20201;-73
2023/01/04 22:30:21;;;;;;;0.70;0.70;;;;;;;8.23;100.00;101127.53;5111390;28;20205;-74
2023/01/04 22:32:48;;;;;;;0.70;0.70;;;;;;;7.99;100.00;101086.06;5095184;28;20647;-74
2023/01/04 22:35:15;;;;;;;1.08;1.08;;;;;;;8.17;100.00;101123.00;5108117;28;20209;-73
2023/01/04 22:37:41;;;;;;;0.80;0.80;;;;;;;8.04;100.00;101119.84;5097466;28;20224;-74
2023/01/04 22:40:09;;;;;;;0.90;0.90;;;;;;;8.02;100.00;101114.63;5099913;28;20213;-74
2023/01/04 22:42:36;;;;;;;0.80;0.80;;;;;;;7.87;100.00;101091.63;5081479;28;20648;-74
2023/01/04 22:45:03;;;;;;;0.95;0.95;;;;;;;7.78;100.00;101080.00;5090718;28;20636;-74
2023/01/04 22:47:31;;;;;;;0.70;0.70;;;;;;;7.98;100.00;101105.00;5092337;28;20214;-73
2023/01/04 22:49:58;;;;;;;0.95;0.95;;;;;;;7.93;100.00;101102.22;5090481;28;20198;-74
2023/01/04 22:52:25;;;;;;;2.00;1.90;;;;;;;7.96;100.00;101111.78;5066608;28;21019;-74
2023/01/04 22:54:51;;;;;;;0.80;0.80;;;;;;;8.01;100.00;101099.94;5084443;28;20641;-73
2023/01/04 22:57:18;;;;;;;0.70;0.70;;;;;;;7.86;100.00;101069.22;5089903;28;20581;-72
2023/01/04 22:59:45;;;;;;;0.73;0.73;;;;;;;7.97;100.00;101092.88;5070339;28;20194;-72
2023/01/04 23:02:12;;;;;;;1.00;1.00;;;;;;;8.02;100.00;101081.06;5090765;28;20206;-74
2023/01/04 23:04:40;;;;;;;1.50;1.50;;;;;;;8.11;100.00;101086.59;5065123;28;20287;-73
2023/01/04 23:07:07;;;;;;;1.55;1.55;;;;;;;8.03;100.00;101087.97;5086297;28;20194;-73
2023/01/04 23:09:34;;;;;;;0.70;0.70;;;;;;;8.13;100.00;101078.91;5090453;28;20596;-73
2023/01/04 23:12:00;;;;;;;0.80;0.80;;;;;;;8.06;100.00;101077.78;5091005;28;20202;-73
2023/01/04 23:14:27;;;;;;;0.90;0.90;;;;;;;8.05;100.00;101075.13;5090781;28;20202;-73
2023/01/04 23:16:54;;;;;;;0.95;0.95;;;;;;;7.76;100.00;101055.84;5092812;28;20229;-73
2023/01/04 23:19:21;;;;;;;0.80;0.80;;;;;;;7.75;100.00;101074.72;5094300;28;20205;-74
2023/01/04 23:21:49;;;;;;;0.70;0.70;;;;;;;7.77;100.00;101065.38;5095232;28;20579;-73
2023/01/04 23:24:16;;;;;;;0.70;0.70;;;;;;;7.86;100.00;101069.22;5094480;28;20205;-73
2023/01/04 23:26:43;;;;;;;1.55;1.45;;;;;;;7.74;100.00;101063.53;5094400;28;20641;-73
2023/01/04 23:29:10;;;;;;;0.70;0.70;;;;;;;7.81;100.00;101062.94;5094702;28;20209;-73
2023/01/04 23:31:37;;;;;;;0.93;0.93;;;;;;;7.77;100.00;101058.50;5094389;28;20199;-74
2023/01/04 23:34:06;;;;;;;0.80;0.80;;;;;;;7.81;100.00;101054.34;5094658;28;20620;-73
2023/01/04 23:36:35;;;;;;;0.70;0.70;;;;;;;7.84;100.00;101057.06;5082625;28;20197;-72
2023/01/04 23:39:06;;;;;;;1.33;1.33;;;;;;;7.90;100.00;101052.13;5094517;28;20190;-74
2023/01/04 23:41:45;;;;;;;0.70;0.70;;;;;;;7.96;100.00;101047.22;5094301;28;20206;-72
2023/01/04 23:44:14;;;;;;;0.70;0.70;;;;;;;8.04;100.00;101043.25;5094899;28;20216;-72
2023/01/04 23:46:41;;;;;;;1.10;1.10;;;;;;;8.08;100.00;101039.09;5094174;28;20624;-73
2023/01/04 23:49:07;;;;;;;0.73;0.73;;;;;;;7.85;100.00;101002.00;5094329;28;20209;-73
2023/01/04 23:51:34;;;;;;;0.80;0.80;;;;;;;8.09;100.00;101033.13;5094398;28;20207;-73
2023/01/04 23:54:02;;;;;;;0.90;0.90;;;;;;;7.93;100.00;101026.44;5094777;28;20206;-74
2023/01/04 23:56:30;;;;;;;0.70;0.70;;;;;;;8.09;100.00;101043.44;5093687;28;20252;-74
2023/01/04 23:58:57;;;;;;;0.80;0.80;;;;;;;7.98;100.00;101032.69;5093938;28;20601;-74
